createdAt,value
2022-12-05T00:00:17.855Z,2.79
2022-12-05T00:01:17.793Z,2.86
2022-12-05T00:02:17.873Z,2.80
2022-12-05T00:03:17.785Z,2.77
2022-12-05T00:04:17.799Z,2.63
2022-12-05T00:05:17.785Z,2.71
2022-12-05T00:06:17.800Z,2.68
2022-12-05T00:07:17.769Z,2.66
2022-12-05T00:08:17.832Z,2.74
2022-12-05T00:09:17.737Z,2.69
2022-12-05T00:10:17.750Z,2.76
2022-12-05T00:11:17.743Z,2.69
2022-12-05T00:12:19.324Z,2.73
2022-12-05T00:13:17.711Z,2.69
2022-12-05T00:14:17.724Z,2.63
2022-12-05T00:15:17.751Z,2.69
2022-12-05T00:16:17.752Z,2.68
2022-12-05T00:17:17.675Z,2.63
2022-12-05T00:18:17.745Z,2.65
2022-12-05T00:19:17.668Z,2.68
2022-12-05T00:20:17.656Z,2.80
2022-12-05T00:21:17.659Z,2.86
2022-12-05T00:22:17.659Z,2.81
2022-12-05T00:23:17.653Z,2.86
2022-12-05T00:24:17.912Z,2.87
2022-12-05T00:25:17.632Z,2.84
2022-12-05T00:26:17.618Z,2.86
2022-12-05T00:27:17.639Z,2.77
2022-12-05T00:28:17.620Z,2.86
2022-12-05T00:29:17.611Z,2.84
2022-12-05T00:30:17.654Z,2.79
2022-12-05T00:31:17.679Z,2.84
2022-12-05T00:32:17.616Z,2.73
2022-12-05T00:33:17.583Z,2.68
2022-12-05T00:34:17.579Z,2.66
2022-12-05T00:35:17.593Z,2.73
2022-12-05T00:36:17.607Z,2.86
2022-12-05T00:37:17.569Z,2.89
2022-12-05T00:38:17.548Z,2.80
2022-12-05T00:39:17.547Z,2.87
2022-12-05T00:40:17.538Z,2.81
2022-12-05T00:41:17.550Z,2.74
2022-12-05T00:42:17.587Z,2.66
2022-12-05T00:43:17.529Z,2.63
2022-12-05T00:44:17.503Z,2.63
2022-12-05T00:45:17.499Z,2.69
2022-12-05T00:46:17.575Z,2.68
2022-12-05T00:47:17.488Z,2.68
2022-12-05T00:48:17.531Z,2.73
2022-12-05T00:49:17.492Z,2.80
2022-12-05T00:50:17.446Z,2.83
2022-12-05T00:51:17.464Z,2.68
2022-12-05T00:52:17.447Z,2.61
2022-12-05T00:53:17.437Z,2.59
2022-12-05T00:54:17.509Z,2.59
2022-12-05T00:55:17.425Z,2.69
2022-12-05T00:56:17.431Z,2.65
2022-12-05T00:57:17.430Z,2.68
2022-12-05T00:58:17.419Z,2.65
2022-12-05T00:59:17.387Z,2.66
2022-12-05T01:00:17.467Z,2.65
2022-12-05T01:01:17.513Z,2.66
2022-12-05T01:02:17.415Z,2.68
2022-12-05T01:03:17.488Z,2.65
2022-12-05T01:04:17.373Z,2.51
2022-12-05T01:05:17.394Z,2.63
2022-12-05T01:06:17.401Z,2.53
2022-12-05T01:07:17.331Z,2.65
2022-12-05T01:08:17.401Z,2.62
2022-12-05T01:09:17.323Z,2.55
2022-12-05T01:10:17.320Z,2.65
2022-12-05T01:11:17.306Z,2.66
2022-12-05T01:12:17.388Z,2.73
2022-12-05T01:13:17.310Z,2.61
2022-12-05T01:14:17.310Z,2.63
2022-12-05T01:15:17.282Z,2.63
2022-12-05T01:16:17.372Z,2.58
2022-12-05T01:17:17.281Z,2.59
2022-12-05T01:18:17.316Z,2.48
2022-12-05T01:19:17.273Z,2.56
2022-12-05T01:20:17.260Z,2.62
2022-12-05T01:21:17.258Z,2.47
2022-12-05T01:22:17.246Z,2.53
2022-12-05T01:23:17.240Z,2.43
2022-12-05T01:24:17.582Z,2.58
2022-12-05T01:25:17.228Z,2.48
2022-12-05T01:26:17.227Z,2.56
2022-12-05T01:27:17.214Z,2.59
2022-12-05T01:28:17.199Z,2.58
2022-12-05T01:29:17.275Z,2.59
2022-12-05T01:30:17.269Z,2.48
2022-12-05T01:31:17.251Z,2.48
2022-12-05T01:32:17.241Z,2.55
2022-12-05T01:33:17.162Z,2.47
2022-12-05T01:34:17.145Z,2.47
2022-12-05T01:35:17.168Z,2.47
2022-12-05T01:36:17.210Z,2.58
2022-12-05T01:37:17.135Z,2.43
2022-12-05T01:38:17.143Z,2.43
2022-12-05T01:39:17.130Z,2.43
2022-12-05T01:40:17.107Z,2.43
2022-12-05T01:41:17.123Z,2.37
2022-12-05T01:42:19.554Z,2.47
2022-12-05T01:43:17.110Z,2.40
2022-12-05T01:44:17.083Z,2.44
2022-12-05T01:45:17.077Z,2.32
2022-12-05T01:46:17.169Z,2.29
2022-12-05T01:47:17.070Z,2.29
2022-12-05T01:48:17.112Z,2.32
2022-12-05T01:49:17.078Z,2.20
2022-12-05T01:50:17.039Z,2.27
2022-12-05T01:51:17.034Z,2.37
2022-12-05T01:52:17.031Z,2.36
2022-12-05T01:53:17.023Z,2.40
2022-12-05T01:54:17.069Z,2.38
2022-12-05T01:55:17.022Z,2.45
2022-12-05T01:56:17.026Z,2.51
2022-12-05T01:57:17.015Z,2.37
2022-12-05T01:58:16.989Z,2.43
2022-12-05T01:59:16.965Z,2.37
2022-12-05T02:00:17.032Z,2.36
2022-12-05T02:01:17.010Z,2.36
2022-12-05T02:02:17.056Z,2.38
2022-12-05T02:03:16.942Z,2.38
2022-12-05T02:04:16.931Z,2.51
2022-12-05T02:05:16.946Z,2.38
2022-12-05T02:06:16.996Z,2.38
2022-12-05T02:07:16.941Z,2.37
2022-12-05T02:08:16.962Z,2.43
2022-12-05T02:09:16.925Z,2.40
2022-12-05T02:10:16.914Z,2.41
2022-12-05T02:11:16.888Z,2.38
2022-12-05T02:12:16.940Z,2.40
2022-12-05T02:13:16.894Z,2.26
2022-12-05T02:14:16.879Z,2.38
2022-12-05T02:15:16.862Z,2.45
2022-12-05T02:16:16.903Z,2.29
2022-12-05T02:17:16.880Z,2.44
2022-12-05T02:18:16.891Z,2.32
2022-12-05T02:19:16.859Z,2.37
2022-12-05T02:20:16.844Z,2.36
2022-12-05T02:21:16.838Z,2.43
2022-12-05T02:22:16.828Z,2.48
2022-12-05T02:23:16.841Z,2.41
2022-12-05T02:24:16.855Z,2.41
2022-12-05T02:25:16.812Z,2.33
2022-12-05T02:26:16.792Z,2.30
2022-12-05T02:27:16.833Z,2.37
2022-12-05T02:28:16.809Z,2.36
2022-12-05T02:29:16.793Z,2.36
2022-12-05T02:30:16.883Z,2.38
2022-12-05T02:31:16.809Z,2.32
2022-12-05T02:32:16.773Z,2.27
2022-12-05T02:33:16.743Z,2.18
2022-12-05T02:34:16.758Z,2.19
2022-12-05T02:35:16.749Z,2.26
2022-12-05T02:36:16.801Z,2.23
2022-12-05T02:37:16.744Z,2.25
2022-12-05T02:38:16.722Z,2.19
2022-12-05T02:39:16.738Z,2.25
2022-12-05T02:40:16.708Z,2.23
2022-12-05T02:41:16.691Z,2.23
2022-12-05T02:42:16.749Z,2.27
2022-12-05T02:43:16.697Z,2.32
2022-12-05T02:44:16.690Z,2.19
2022-12-05T02:45:16.676Z,2.14
2022-12-05T02:46:17.779Z,2.18
2022-12-05T02:47:16.680Z,2.23
2022-12-05T02:48:16.703Z,2.22
2022-12-05T02:49:16.635Z,2.14
2022-12-05T02:50:16.636Z,2.11
2022-12-05T02:51:16.651Z,2.14
2022-12-05T02:52:16.603Z,2.18
2022-12-05T02:53:16.628Z,2.19
2022-12-05T02:54:16.650Z,2.22
2022-12-05T02:55:16.599Z,2.22
2022-12-05T02:56:16.589Z,2.01
2022-12-05T02:57:16.575Z,2.02
2022-12-05T02:58:16.578Z,2.02
2022-12-05T02:59:22.905Z,2.09
2022-12-05T03:00:17.597Z,2.18
2022-12-05T03:01:16.594Z,2.20
2022-12-05T03:02:16.550Z,2.18
2022-12-05T03:03:16.539Z,2.22
2022-12-05T03:04:16.609Z,2.19
2022-12-05T03:05:16.548Z,2.19
2022-12-05T03:06:16.574Z,2.18
2022-12-05T03:07:16.495Z,2.18
2022-12-05T03:08:16.569Z,2.30
2022-12-05T03:09:16.491Z,2.25
2022-12-05T03:10:16.499Z,2.25
2022-12-05T03:11:16.499Z,2.22
2022-12-05T03:12:16.528Z,2.29
2022-12-05T03:13:16.474Z,2.29
2022-12-05T03:14:16.482Z,2.26
2022-12-05T03:15:16.461Z,2.29
2022-12-05T03:16:16.460Z,2.23
2022-12-05T03:17:16.457Z,2.23
2022-12-05T03:18:16.489Z,2.22
2022-12-05T03:19:16.434Z,2.19
2022-12-05T03:20:16.444Z,2.15
2022-12-05T03:21:16.419Z,2.20
2022-12-05T03:22:16.419Z,2.18
2022-12-05T03:23:16.412Z,1.95
2022-12-05T03:24:16.440Z,2.11
2022-12-05T03:25:16.388Z,2.11
2022-12-05T03:26:16.381Z,2.12
2022-12-05T03:27:16.374Z,2.20
2022-12-05T03:28:16.359Z,2.19
2022-12-05T03:29:16.360Z,2.37
2022-12-05T03:30:16.619Z,2.29
2022-12-05T03:31:16.425Z,2.33
2022-12-05T03:32:16.351Z,2.25
2022-12-05T03:33:16.402Z,2.20
2022-12-05T03:34:16.328Z,2.25
2022-12-05T03:35:16.326Z,2.20
2022-12-05T03:36:16.371Z,2.19
2022-12-05T03:37:16.305Z,2.14
2022-12-05T03:38:16.286Z,2.23
2022-12-05T03:39:16.297Z,2.14
2022-12-05T03:40:16.278Z,2.15
2022-12-05T03:41:16.289Z,2.22
2022-12-05T03:42:16.326Z,2.18
2022-12-05T03:43:16.254Z,2.18
2022-12-05T03:44:16.255Z,2.26
2022-12-05T03:45:16.264Z,2.22
2022-12-05T03:46:16.302Z,2.15
2022-12-05T03:47:16.232Z,2.12
2022-12-05T03:48:16.283Z,2.08
2022-12-05T03:49:16.219Z,2.08
2022-12-05T03:50:16.194Z,2.04
2022-12-05T03:51:16.205Z,2.08
2022-12-05T03:52:16.204Z,2.00
2022-12-05T03:53:20.679Z,1.83
2022-12-05T03:54:16.221Z,1.89
2022-12-05T03:55:16.175Z,1.81
2022-12-05T03:56:16.153Z,1.79
2022-12-05T03:57:16.178Z,1.88
2022-12-05T03:58:16.155Z,1.83
2022-12-05T03:59:16.134Z,1.70
2022-12-05T04:00:16.170Z,1.85
2022-12-05T04:01:16.193Z,1.89
2022-12-05T04:02:16.121Z,2.01
2022-12-05T04:03:16.185Z,1.98
2022-12-05T04:04:16.110Z,2.01
2022-12-05T04:05:16.096Z,2.04
2022-12-05T04:06:16.147Z,1.95
2022-12-05T04:07:16.080Z,1.90
2022-12-05T04:08:16.131Z,2.00
2022-12-05T04:09:17.579Z,1.85
2022-12-05T04:10:16.071Z,1.92
2022-12-05T04:11:16.060Z,1.88
2022-12-05T04:12:16.131Z,1.95
2022-12-05T04:13:16.069Z,1.92
2022-12-05T04:14:16.043Z,2.05
2022-12-05T04:15:16.043Z,2.04
2022-12-05T04:16:16.115Z,2.23
2022-12-05T04:17:16.026Z,2.22
2022-12-05T04:18:16.050Z,2.11
2022-12-05T04:19:16.007Z,1.82
2022-12-05T04:20:16.011Z,1.89
2022-12-05T04:21:16.012Z,1.82
2022-12-05T04:22:15.999Z,1.95
2022-12-05T04:23:15.969Z,1.89
2022-12-05T04:24:15.994Z,1.89
2022-12-05T04:25:15.978Z,1.93
2022-12-05T04:26:15.955Z,1.88
2022-12-05T04:27:15.938Z,2.00
2022-12-05T04:28:21.221Z,2.02
2022-12-05T04:29:16.981Z,1.93
2022-12-05T04:30:15.951Z,1.92
2022-12-05T04:31:16.007Z,2.01
2022-12-05T04:32:15.909Z,1.93
2022-12-05T04:33:15.901Z,2.05
2022-12-05T04:34:15.925Z,2.07
2022-12-05T04:35:16.002Z,2.01
2022-12-05T04:36:15.884Z,2.04
2022-12-05T04:37:15.867Z,2.05
2022-12-05T04:38:15.861Z,2.14
2022-12-05T04:39:18.185Z,2.01
2022-12-05T04:40:15.857Z,1.90
2022-12-05T04:41:15.920Z,2.00
2022-12-05T04:42:15.842Z,2.00
2022-12-05T04:43:15.840Z,2.04
2022-12-05T04:44:15.849Z,2.14
2022-12-05T04:45:15.791Z,1.98
2022-12-05T04:46:15.846Z,2.04
2022-12-05T04:47:15.850Z,2.00
2022-12-05T04:48:15.823Z,2.04
2022-12-05T04:49:15.804Z,2.04
2022-12-05T04:50:15.776Z,2.14
2022-12-05T04:51:15.791Z,2.14
2022-12-05T04:52:15.764Z,2.18
2022-12-05T04:53:15.805Z,2.15
2022-12-05T04:54:15.756Z,2.23
2022-12-05T04:55:15.751Z,2.15
2022-12-05T04:56:15.738Z,2.15
2022-12-05T04:57:15.740Z,2.22
2022-12-05T04:58:15.726Z,2.18
2022-12-05T04:59:15.777Z,2.15
2022-12-05T05:00:15.734Z,2.09
2022-12-05T05:01:15.772Z,2.01
2022-12-05T05:02:15.696Z,2.15
2022-12-05T05:03:15.767Z,2.09
2022-12-05T05:04:15.700Z,1.93
2022-12-05T05:05:15.714Z,2.00
2022-12-05T05:06:15.671Z,2.07
2022-12-05T05:07:15.659Z,2.07
2022-12-05T05:08:15.776Z,2.01
2022-12-05T05:09:15.660Z,2.09
2022-12-05T05:10:15.645Z,2.19
2022-12-05T05:11:15.690Z,2.14
2022-12-05T05:12:18.898Z,2.05
2022-12-05T05:13:15.611Z,1.95
2022-12-05T05:14:15.621Z,1.88
2022-12-05T05:15:15.611Z,1.86
2022-12-05T05:16:15.667Z,1.83
2022-12-05T05:17:15.661Z,1.86
2022-12-05T05:18:15.607Z,1.68
2022-12-05T05:19:15.624Z,1.71
2022-12-05T05:20:19.665Z,1.82
2022-12-05T05:21:15.553Z,1.88
2022-12-05T05:22:15.550Z,1.85
2022-12-05T05:23:15.591Z,1.92
2022-12-05T05:24:15.557Z,1.93
2022-12-05T05:25:15.544Z,1.90
2022-12-05T05:26:15.541Z,1.98
2022-12-05T05:27:15.529Z,2.00
2022-12-05T05:28:15.542Z,2.09
2022-12-05T05:29:15.585Z,2.08
2022-12-05T05:30:15.513Z,2.05
2022-12-05T05:31:15.534Z,1.86
2022-12-05T05:32:15.485Z,1.85
2022-12-05T05:33:15.513Z,1.70
2022-12-05T05:34:15.479Z,1.64
2022-12-05T05:35:15.568Z,1.63
2022-12-05T05:36:15.483Z,1.70
2022-12-05T05:37:15.470Z,1.75
2022-12-05T05:38:15.452Z,1.72
2022-12-05T05:39:15.611Z,1.71
2022-12-05T05:40:15.439Z,1.71
2022-12-05T05:41:15.510Z,1.85
2022-12-05T05:42:15.438Z,1.88
2022-12-05T05:43:15.417Z,1.93
2022-12-05T05:44:15.433Z,1.95
2022-12-05T05:45:15.398Z,1.88
2022-12-05T05:46:15.479Z,1.88
2022-12-05T05:47:15.438Z,1.85
2022-12-05T05:48:15.391Z,1.90
2022-12-05T05:49:15.377Z,2.00
2022-12-05T05:50:21.083Z,2.01
2022-12-05T05:51:16.392Z,2.04
2022-12-05T05:52:15.347Z,2.12
2022-12-05T05:53:15.400Z,1.93
2022-12-05T05:54:15.339Z,1.92
2022-12-05T05:55:15.334Z,2.00
2022-12-05T05:56:20.914Z,1.93
2022-12-05T05:57:20.347Z,2.04
2022-12-05T05:58:15.303Z,2.00
2022-12-05T05:59:15.356Z,2.04
2022-12-05T06:00:15.324Z,1.88
2022-12-05T06:01:15.304Z,1.89
2022-12-05T06:02:15.290Z,2.01
2022-12-05T06:03:15.339Z,2.01
2022-12-05T06:04:15.347Z,2.02
2022-12-05T06:05:15.297Z,2.08
2022-12-05T06:06:15.256Z,2.15
2022-12-05T06:07:15.273Z,2.18
2022-12-05T06:08:15.268Z,2.12
2022-12-05T06:09:15.233Z,2.19
2022-12-05T06:10:15.241Z,2.14
2022-12-05T06:11:18.853Z,2.15
2022-12-05T06:12:16.227Z,2.23
2022-12-05T06:13:15.204Z,2.20
2022-12-05T06:14:15.195Z,2.23
2022-12-05T06:15:15.218Z,2.27
2022-12-05T06:16:15.225Z,2.22
2022-12-05T06:17:15.219Z,2.25
2022-12-05T06:18:15.184Z,2.22
2022-12-05T06:19:15.160Z,2.19
2022-12-05T06:20:15.147Z,2.14
2022-12-05T06:21:16.519Z,2.22
2022-12-05T06:22:15.139Z,2.23
2022-12-05T06:23:15.158Z,2.20
2022-12-05T06:24:15.124Z,2.38
2022-12-05T06:25:15.111Z,2.30
2022-12-05T06:26:15.115Z,2.19
2022-12-05T06:27:15.122Z,2.19
2022-12-05T06:28:15.080Z,2.15
2022-12-05T06:29:15.148Z,2.07
2022-12-05T06:30:15.079Z,2.01
2022-12-05T06:31:15.203Z,1.95
2022-12-05T06:32:15.068Z,1.88
2022-12-05T06:33:15.059Z,1.86
2022-12-05T06:34:15.076Z,1.89
2022-12-05T06:35:15.121Z,1.95
2022-12-05T06:36:15.041Z,1.98
2022-12-05T06:37:15.049Z,2.04
2022-12-05T06:38:15.020Z,2.15
2022-12-05T06:39:15.031Z,2.04
2022-12-05T06:40:15.020Z,2.00
2022-12-05T06:41:15.139Z,2.11
2022-12-05T06:42:14.998Z,2.11
2022-12-05T06:43:15.004Z,1.93
2022-12-05T06:44:14.997Z,2.04
2022-12-05T06:45:14.981Z,2.01
2022-12-05T06:46:15.032Z,1.92
2022-12-05T06:47:15.012Z,1.86
2022-12-05T06:48:14.992Z,1.88
2022-12-05T06:49:14.961Z,2.00
2022-12-05T06:50:14.961Z,2.11
2022-12-05T06:51:14.959Z,2.12
2022-12-05T06:52:14.950Z,2.18
2022-12-05T06:53:15.005Z,2.22
2022-12-05T06:54:14.916Z,2.27
2022-12-05T06:55:14.933Z,2.23
2022-12-05T06:56:14.910Z,2.48
2022-12-05T06:57:14.887Z,2.38
2022-12-05T06:58:14.880Z,2.32
2022-12-05T06:59:14.919Z,2.30
2022-12-05T07:00:14.885Z,2.30
2022-12-05T07:01:14.908Z,2.27
2022-12-05T07:02:14.926Z,2.22
2022-12-05T07:03:14.860Z,2.23
2022-12-05T07:04:14.860Z,2.18
2022-12-05T07:05:14.883Z,2.27
2022-12-05T07:06:15.326Z,2.22
2022-12-05T07:07:14.840Z,2.29
2022-12-05T07:08:14.874Z,2.30
2022-12-05T07:09:14.819Z,2.40
2022-12-05T07:10:14.800Z,2.41
2022-12-05T07:11:14.824Z,2.43
2022-12-05T07:12:14.789Z,2.41
2022-12-05T07:13:15.881Z,2.33
2022-12-05T07:14:31.172Z,2.38
2022-12-05T07:15:15.766Z,2.48
2022-12-05T07:16:14.807Z,2.26
2022-12-05T07:17:14.804Z,2.14
2022-12-05T07:18:14.742Z,2.20
2022-12-05T07:19:14.735Z,2.18
2022-12-05T07:20:14.732Z,2.20
2022-12-05T07:21:15.000Z,2.15
2022-12-05T07:22:16.216Z,2.26
2022-12-05T07:23:14.761Z,2.27
2022-12-05T07:24:14.701Z,2.30
2022-12-05T07:25:14.694Z,2.22
2022-12-05T07:26:14.685Z,2.36
2022-12-05T07:27:14.671Z,2.29
2022-12-05T07:28:14.696Z,2.23
2022-12-05T07:29:14.753Z,2.41
2022-12-05T07:30:14.691Z,2.26
2022-12-05T07:31:14.732Z,2.41
2022-12-05T07:32:14.744Z,2.19
2022-12-05T07:33:14.658Z,2.19
2022-12-05T07:34:14.638Z,2.14
2022-12-05T07:35:14.739Z,2.02
2022-12-05T07:36:14.656Z,1.95
2022-12-05T07:37:14.609Z,1.92
2022-12-05T07:38:14.618Z,1.90
2022-12-05T07:39:14.617Z,2.01
2022-12-05T07:40:14.614Z,2.04
2022-12-05T07:41:14.760Z,2.11
2022-12-05T07:42:14.600Z,2.14
2022-12-05T07:43:14.587Z,2.23
2022-12-05T07:44:14.577Z,2.18
2022-12-05T07:45:14.584Z,2.11
2022-12-05T07:46:14.631Z,2.15
2022-12-05T07:47:14.656Z,2.19
2022-12-05T07:48:18.549Z,2.05
2022-12-05T07:49:14.550Z,2.02
2022-12-05T07:50:14.537Z,2.15
2022-12-05T07:51:14.525Z,2.12
2022-12-05T07:52:14.525Z,2.01
2022-12-05T07:53:14.574Z,2.02
2022-12-05T07:54:14.505Z,1.95
2022-12-05T07:55:14.475Z,2.15
2022-12-05T07:56:14.479Z,2.19
2022-12-05T07:57:14.487Z,2.02
2022-12-05T07:58:14.467Z,2.01
2022-12-05T07:59:14.510Z,2.00
2022-12-05T08:00:14.459Z,2.18
2022-12-05T08:01:14.495Z,2.14
2022-12-05T08:02:14.505Z,2.18
2022-12-05T08:03:14.448Z,2.23
2022-12-05T08:04:15.695Z,2.14
2022-12-05T08:05:14.449Z,2.22
2022-12-05T08:06:14.406Z,2.14
2022-12-05T08:07:14.417Z,1.98
2022-12-05T08:08:14.450Z,2.01
2022-12-05T08:09:14.396Z,1.95
2022-12-05T08:10:14.376Z,2.01
2022-12-05T08:11:14.414Z,2.02
2022-12-05T08:12:14.382Z,2.18
2022-12-05T08:13:14.350Z,2.00
2022-12-05T08:14:14.365Z,2.07
2022-12-05T08:15:14.357Z,1.92
2022-12-05T08:16:14.397Z,2.05
2022-12-05T08:17:14.434Z,2.04
2022-12-05T08:18:14.337Z,2.15
2022-12-05T08:19:14.348Z,2.12
2022-12-05T08:20:14.312Z,2.15
2022-12-05T08:21:14.313Z,2.19
2022-12-05T08:22:14.295Z,2.12
2022-12-05T08:23:14.356Z,2.14
2022-12-05T08:24:14.310Z,2.14
2022-12-05T08:25:14.274Z,2.14
2022-12-05T08:26:14.268Z,2.14
2022-12-05T08:27:14.276Z,2.11
2022-12-05T08:28:14.249Z,2.11
2022-12-05T08:29:14.302Z,2.30
2022-12-05T08:30:14.244Z,2.15
2022-12-05T08:31:14.275Z,2.23
2022-12-05T08:32:14.230Z,2.20
2022-12-05T08:33:14.237Z,2.29
2022-12-05T08:34:14.218Z,2.33
2022-12-05T08:35:14.249Z,2.20
2022-12-05T08:36:14.199Z,2.22
2022-12-05T08:37:14.195Z,2.29
2022-12-05T08:38:14.201Z,2.37
2022-12-05T08:39:14.246Z,2.32
2022-12-05T08:40:14.186Z,2.45
2022-12-05T08:41:14.618Z,2.51
2022-12-05T08:42:14.164Z,2.43
2022-12-05T08:43:14.150Z,2.37
2022-12-05T08:44:14.149Z,2.44
2022-12-05T08:45:14.175Z,2.47
2022-12-05T08:46:14.185Z,2.53
2022-12-05T08:47:14.174Z,2.44
2022-12-05T08:48:14.118Z,2.30
2022-12-05T08:49:14.130Z,2.22
2022-12-05T08:50:14.112Z,2.25
2022-12-05T08:51:14.090Z,2.36
2022-12-05T08:52:14.090Z,2.45
2022-12-05T08:53:14.139Z,2.63
2022-12-05T08:54:14.076Z,2.77
2022-12-05T08:55:14.078Z,2.69
2022-12-05T08:56:14.060Z,2.71
2022-12-05T08:57:14.052Z,2.69
2022-12-05T08:58:14.042Z,2.61
2022-12-05T08:59:14.085Z,2.63
2022-12-05T09:00:14.020Z,2.47
2022-12-05T09:01:14.118Z,2.51
2022-12-05T09:02:14.092Z,2.61
2022-12-05T09:03:14.005Z,2.47
2022-12-05T09:04:14.006Z,2.47
2022-12-05T09:05:27.783Z,2.53
2022-12-05T09:06:14.985Z,2.61
2022-12-05T09:07:13.988Z,2.59
2022-12-05T09:08:14.054Z,2.69
2022-12-05T09:09:13.976Z,2.76
2022-12-05T09:10:13.955Z,2.63
2022-12-05T09:11:14.026Z,2.66
2022-12-05T09:12:13.945Z,2.47
2022-12-05T09:13:13.946Z,2.44
2022-12-05T09:14:13.927Z,2.56
2022-12-05T09:15:13.925Z,2.66
2022-12-05T09:16:13.969Z,2.68
2022-12-05T09:17:13.979Z,2.86
2022-12-05T09:18:13.926Z,2.84
2022-12-05T09:19:13.898Z,2.81
2022-12-05T09:20:13.937Z,2.81
2022-12-05T09:21:13.901Z,2.86
2022-12-05T09:22:13.869Z,2.86
2022-12-05T09:23:16.160Z,2.80
2022-12-05T09:24:13.866Z,2.65
2022-12-05T09:25:13.894Z,2.81
2022-12-05T09:26:13.879Z,2.92
2022-12-05T09:27:13.861Z,2.90
2022-12-05T09:28:13.844Z,2.94
2022-12-05T09:29:17.136Z,3.04
2022-12-05T09:30:13.820Z,3.05
2022-12-05T09:31:13.886Z,3.04
2022-12-05T09:32:13.799Z,3.02
2022-12-05T09:33:13.799Z,2.86
2022-12-05T09:34:13.797Z,2.90
2022-12-05T09:35:13.837Z,2.86
2022-12-05T09:36:13.778Z,2.77
2022-12-05T09:37:37.521Z,2.94
2022-12-05T09:38:14.766Z,2.83
2022-12-05T09:39:13.759Z,2.95
2022-12-05T09:40:13.733Z,2.94
2022-12-05T09:41:13.787Z,2.97
2022-12-05T09:42:13.732Z,2.74
2022-12-05T09:43:13.726Z,2.76
2022-12-05T09:44:13.705Z,2.77
2022-12-05T09:45:13.725Z,2.65
2022-12-05T09:46:13.736Z,2.47
2022-12-05T09:47:13.948Z,2.44
2022-12-05T09:48:13.706Z,2.43
2022-12-05T09:49:13.675Z,2.53
2022-12-05T09:50:13.701Z,2.73
2022-12-05T09:51:13.654Z,2.69
2022-12-05T09:52:13.659Z,2.58
2022-12-05T09:53:13.706Z,2.65
2022-12-05T09:54:13.647Z,2.53
2022-12-05T09:55:13.635Z,2.56
2022-12-05T09:56:13.636Z,2.55
2022-12-05T09:57:13.618Z,2.58
2022-12-05T09:58:13.626Z,2.66
2022-12-05T09:59:13.653Z,2.66
2022-12-05T10:00:13.602Z,2.65
2022-12-05T10:01:13.631Z,2.65
2022-12-05T10:02:13.629Z,2.69
2022-12-05T10:03:13.580Z,2.71
2022-12-05T10:04:13.653Z,2.69
2022-12-05T10:05:13.681Z,2.65
2022-12-05T10:06:13.549Z,2.84
2022-12-05T10:07:13.545Z,2.68
2022-12-05T10:08:13.601Z,2.73
2022-12-05T10:09:13.652Z,2.69
2022-12-05T10:10:19.638Z,2.73
2022-12-05T10:11:14.576Z,2.56
2022-12-05T10:12:13.518Z,2.55
2022-12-05T10:13:13.510Z,2.56
2022-12-05T10:14:13.487Z,2.45
2022-12-05T10:15:13.483Z,2.48
2022-12-05T10:16:13.524Z,2.45
2022-12-05T10:17:13.527Z,2.47
2022-12-05T10:18:13.476Z,2.47
2022-12-05T10:19:13.468Z,2.45
2022-12-05T10:20:13.456Z,2.50
2022-12-05T10:21:13.446Z,2.59
2022-12-05T10:22:17.351Z,2.65
2022-12-05T10:23:34.259Z,2.68
2022-12-05T10:24:14.437Z,2.69
2022-12-05T10:25:13.421Z,2.62
2022-12-05T10:26:13.422Z,2.61
2022-12-05T10:27:13.405Z,2.58
2022-12-05T10:28:13.394Z,2.55
2022-12-05T10:29:13.454Z,2.68
2022-12-05T10:30:13.406Z,2.71
2022-12-05T10:31:13.444Z,2.74
2022-12-05T10:32:13.376Z,2.84
2022-12-05T10:33:13.395Z,2.79
2022-12-05T10:34:13.365Z,2.95
2022-12-05T10:35:13.407Z,2.89
2022-12-05T10:36:13.362Z,2.86
2022-12-05T10:37:13.380Z,2.81
2022-12-05T10:38:13.368Z,2.98
2022-12-05T10:39:13.325Z,2.83
2022-12-05T10:40:13.331Z,2.97
2022-12-05T10:41:13.357Z,3.01
2022-12-05T10:42:13.308Z,3.01
2022-12-05T10:43:13.319Z,2.98
2022-12-05T10:44:13.307Z,2.94
2022-12-05T10:45:13.292Z,2.92
2022-12-05T10:46:16.965Z,2.92
2022-12-05T10:47:13.459Z,3.05
2022-12-05T10:48:13.266Z,3.05
2022-12-05T10:49:13.242Z,3.01
2022-12-05T10:50:13.249Z,2.99
2022-12-05T10:51:13.240Z,2.98
2022-12-05T10:52:13.236Z,3.10
2022-12-05T10:53:13.264Z,3.04
2022-12-05T10:54:13.240Z,3.08
2022-12-05T10:55:13.218Z,2.92
2022-12-05T10:57:14.237Z,2.77
2022-12-05T10:58:17.387Z,2.84
2022-12-05T10:59:13.280Z,2.84
2022-12-05T11:00:13.175Z,2.97
2022-12-05T11:01:13.176Z,3.01
2022-12-05T11:02:13.219Z,2.89
2022-12-05T11:03:13.159Z,2.92
2022-12-05T11:04:13.970Z,2.95
2022-12-05T11:05:13.258Z,3.04
2022-12-05T11:06:13.134Z,3.02
2022-12-05T11:07:13.103Z,3.02
2022-12-05T11:08:13.161Z,3.15
2022-12-05T11:09:13.118Z,3.02
2022-12-05T11:10:13.115Z,2.97
2022-12-05T11:11:13.153Z,3.04
2022-12-05T11:12:13.115Z,3.20
2022-12-05T11:13:13.096Z,3.25
2022-12-05T11:14:13.077Z,3.19
2022-12-05T11:15:13.082Z,3.15
2022-12-05T11:16:13.120Z,3.16
2022-12-05T11:17:13.129Z,3.20
2022-12-05T11:18:13.065Z,3.20
2022-12-05T11:19:13.044Z,3.16
2022-12-05T11:20:13.036Z,3.08
2022-12-05T11:21:13.037Z,3.15
2022-12-05T11:22:13.004Z,3.02
2022-12-05T11:23:13.102Z,3.23
2022-12-05T11:24:13.018Z,3.13
2022-12-05T11:25:13.002Z,3.08
2022-12-05T11:26:12.990Z,3.13
2022-12-05T11:27:12.997Z,3.23
2022-12-05T11:28:13.037Z,3.22
2022-12-05T11:29:13.033Z,3.19
2022-12-05T11:30:12.968Z,3.26
2022-12-05T11:31:13.065Z,3.16
2022-12-05T11:32:12.959Z,3.17
2022-12-05T11:33:12.948Z,3.19
2022-12-05T11:34:12.970Z,3.37
2022-12-05T11:35:12.986Z,3.44
2022-12-05T11:36:12.915Z,3.44
2022-12-05T11:37:12.926Z,3.34
2022-12-05T11:38:12.925Z,3.33
2022-12-05T11:39:12.892Z,3.50
2022-12-05T11:40:12.915Z,3.34
2022-12-05T11:41:12.955Z,3.39
2022-12-05T11:42:12.895Z,3.30
2022-12-05T11:43:12.917Z,3.39
2022-12-05T11:44:12.897Z,3.25
2022-12-05T11:45:12.877Z,3.42
2022-12-05T11:46:12.966Z,3.45
2022-12-05T11:47:12.986Z,3.35
2022-12-05T11:48:12.849Z,3.42
2022-12-05T11:49:12.855Z,3.31
2022-12-05T11:50:12.859Z,3.39
2022-12-05T11:51:12.837Z,3.37
2022-12-05T11:52:12.837Z,3.30
2022-12-05T11:53:12.926Z,3.16
2022-12-05T11:54:12.828Z,3.22
2022-12-05T11:55:12.838Z,3.10
2022-12-05T11:56:12.795Z,3.07
2022-12-05T11:57:12.776Z,3.08
2022-12-05T11:58:12.792Z,3.23
2022-12-05T11:59:12.836Z,3.26
2022-12-05T12:00:12.795Z,3.35
2022-12-05T12:01:12.776Z,3.44
2022-12-05T12:02:12.844Z,3.34
2022-12-05T12:03:12.794Z,3.33
2022-12-05T12:04:12.757Z,3.44
2022-12-05T12:05:12.809Z,3.39
2022-12-05T12:06:12.735Z,3.37
2022-12-05T12:07:12.728Z,3.44
2022-12-05T12:08:12.796Z,3.41
2022-12-05T12:09:12.691Z,3.41
2022-12-05T12:10:12.740Z,3.41
2022-12-05T12:11:12.757Z,3.39
2022-12-05T12:12:12.695Z,3.34
2022-12-05T12:13:12.685Z,3.35
2022-12-05T12:14:12.676Z,3.35
2022-12-05T12:15:12.655Z,3.41
2022-12-05T12:16:12.704Z,3.39
2022-12-05T12:17:12.822Z,3.39
2022-12-05T12:18:12.645Z,3.44
2022-12-05T12:19:12.626Z,3.50
2022-12-05T12:20:12.666Z,3.56
2022-12-05T12:21:12.656Z,3.64
2022-12-05T12:22:12.593Z,3.64
2022-12-05T12:23:12.676Z,3.57
2022-12-05T12:24:12.630Z,3.67
2022-12-05T12:25:12.605Z,3.72
2022-12-05T12:26:12.592Z,3.57
2022-12-05T12:27:12.615Z,3.63
2022-12-05T12:28:12.696Z,3.52
2022-12-05T12:29:12.667Z,3.39
2022-12-05T12:30:12.565Z,3.63
2022-12-05T12:31:12.602Z,3.60
2022-12-05T12:32:12.635Z,3.57
2022-12-05T12:33:12.536Z,3.62
2022-12-05T12:34:12.537Z,3.57
2022-12-05T12:35:12.598Z,3.75
2022-12-05T12:36:12.538Z,3.74
2022-12-05T12:37:12.537Z,3.77
2022-12-05T12:38:12.506Z,3.80
2022-12-05T12:39:12.505Z,3.71
2022-12-05T12:40:12.498Z,3.63
2022-12-05T12:41:12.555Z,3.67
2022-12-05T12:42:12.456Z,3.64
2022-12-05T12:43:30.922Z,3.63
2022-12-05T12:44:13.455Z,3.54
2022-12-05T12:45:12.456Z,3.59
2022-12-05T12:46:12.470Z,3.67
2022-12-05T12:47:12.572Z,3.62
2022-12-05T12:48:12.412Z,3.64
2022-12-05T12:49:12.453Z,3.68
2022-12-05T12:50:12.428Z,3.54
2022-12-05T12:51:12.423Z,3.54
2022-12-05T12:52:12.429Z,3.64
2022-12-05T12:53:12.669Z,3.75
2022-12-05T12:54:12.396Z,3.67
2022-12-05T12:55:12.409Z,3.68
2022-12-05T12:56:12.373Z,3.62
2022-12-05T12:57:15.324Z,3.62
2022-12-05T12:58:12.396Z,3.64
2022-12-05T12:59:12.386Z,3.71
2022-12-05T13:00:12.344Z,3.63
2022-12-05T13:01:12.424Z,3.71
2022-12-05T13:02:12.402Z,3.59
2022-12-05T13:03:12.325Z,3.56
2022-12-05T13:04:12.296Z,3.62
2022-12-05T13:05:12.351Z,3.53
2022-12-05T13:06:12.336Z,3.59
2022-12-05T13:07:12.304Z,3.60
2022-12-05T13:08:12.445Z,3.56
2022-12-05T13:09:12.273Z,3.62
2022-12-05T13:10:12.259Z,3.56
2022-12-05T13:11:12.338Z,3.50
2022-12-05T13:12:12.268Z,3.74
2022-12-05T13:13:12.259Z,3.74
2022-12-05T13:14:12.272Z,3.80
2022-12-05T13:15:25.650Z,3.57
2022-12-05T13:16:12.270Z,3.62
2022-12-05T13:17:12.328Z,3.57
2022-12-05T13:18:12.213Z,3.75
2022-12-05T13:19:12.218Z,3.77